createdAt,value
2022-08-16T00:02:30.364Z,100.00
2022-08-16T00:04:59.771Z,100.00
2022-08-16T00:07:26.843Z,100.00
2022-08-16T00:09:55.889Z,100.00
2022-08-16T00:12:24.047Z,100.00
2022-08-16T00:14:50.588Z,100.00
2022-08-16T00:17:23.176Z,100.00
2022-08-16T00:19:53.322Z,100.00
2022-08-16T00:22:20.889Z,100.00
2022-08-16T00:24:53.352Z,100.00
2022-08-16T00:27:21.128Z,100.00
2022-08-16T00:29:47.969Z,100.00
2022-08-16T00:32:27.614Z,100.00
2022-08-16T00:35:00.414Z,100.00
2022-08-16T00:37:57.351Z,100.00
2022-08-16T00:40:34.569Z,100.00
2022-08-16T00:43:04.344Z,100.00
2022-08-16T00:45:36.392Z,100.00
2022-08-16T00:48:03.804Z,100.00
2022-08-16T00:50:50.199Z,100.00
2022-08-16T00:53:22.000Z,100.00
2022-08-16T00:55:51.153Z,100.00
2022-08-16T00:58:34.522Z,100.00
2022-08-16T01:01:01.871Z,100.00
2022-08-16T01:03:31.706Z,100.00
2022-08-16T01:06:40.074Z,100.00
2022-08-16T01:08:50.702Z,100.00
2022-08-16T01:11:18.172Z,100.00
2022-08-16T01:13:47.505Z,100.00
2022-08-16T01:16:20.126Z,100.00
2022-08-16T01:19:12.402Z,100.00
2022-08-16T01:22:47.861Z,100.00
2022-08-16T01:25:02.410Z,100.00
2022-08-16T01:27:36.962Z,100.00
2022-08-16T01:30:19.923Z,100.00
2022-08-16T01:33:02.348Z,100.00
2022-08-16T01:35:52.414Z,100.00
2022-08-16T01:38:25.990Z,100.00
2022-08-16T01:40:58.403Z,100.00
2022-08-16T01:43:29.440Z,100.00
2022-08-16T01:45:59.602Z,100.00
2022-08-16T01:48:46.386Z,100.00
2022-08-16T01:51:16.998Z,100.00
2022-08-16T01:53:43.708Z,100.00
2022-08-16T01:56:24.522Z,100.00
2022-08-16T01:58:55.643Z,100.00
2022-08-16T02:01:23.480Z,100.00
2022-08-16T02:03:52.974Z,100.00
2022-08-16T02:06:34.487Z,100.00
2022-08-16T02:09:05.229Z,100.00
2022-08-16T02:11:47.644Z,100.00
2022-08-16T02:14:18.310Z,100.00
2022-08-16T02:16:47.746Z,100.00
2022-08-16T02:19:16.146Z,100.00
2022-08-16T02:22:08.904Z,100.00
2022-08-16T02:24:40.639Z,100.00
2022-08-16T02:27:08.323Z,100.00
2022-08-16T02:29:34.779Z,100.00
2022-08-16T02:32:04.318Z,100.00
2022-08-16T02:34:48.498Z,100.00
2022-08-16T02:37:20.960Z,100.00
2022-08-16T02:39:47.629Z,100.00
2022-08-16T02:42:20.938Z,100.00
2022-08-16T02:44:47.393Z,100.00
2022-08-16T02:47:25.363Z,100.00
2022-08-16T02:49:58.994Z,100.00
2022-08-16T02:52:39.067Z,100.00
2022-08-16T02:55:10.966Z,100.00
2022-08-16T02:57:37.884Z,100.00
2022-08-16T03:00:33.989Z,100.00
2022-08-16T03:02:59.507Z,100.00
2022-08-16T03:05:26.199Z,100.00
2022-08-16T03:07:57.699Z,100.00
2022-08-16T03:10:24.342Z,100.00
2022-08-16T03:13:00.398Z,100.00
2022-08-16T03:15:27.767Z,100.00
2022-08-16T03:17:54.404Z,100.00
2022-08-16T03:20:20.848Z,100.00
2022-08-16T03:22:59.044Z,100.00
2022-08-16T03:25:25.447Z,100.00
2022-08-16T03:28:07.935Z,100.00
2022-08-16T03:30:36.265Z,100.00
2022-08-16T03:33:03.757Z,100.00
2022-08-16T03:35:34.306Z,100.00
2022-08-16T03:38:04.917Z,100.00
2022-08-16T03:40:51.749Z,100.00
2022-08-16T03:43:19.827Z,100.00
2022-08-16T03:45:48.592Z,100.00
2022-08-16T03:48:19.683Z,100.00
2022-08-16T03:51:00.009Z,100.00
2022-08-16T03:53:37.673Z,100.00
2022-08-16T03:56:07.299Z,100.00
2022-08-16T03:58:34.719Z,100.00
2022-08-16T04:01:04.462Z,100.00
2022-08-16T04:03:31.454Z,100.00
2022-08-16T04:05:57.932Z,100.00
2022-08-16T04:08:24.902Z,100.00
2022-08-16T04:10:55.040Z,100.00
2022-08-16T04:14:00.597Z,100.00
2022-08-16T04:16:09.226Z,100.00
2022-08-16T04:18:54.282Z,100.00
2022-08-16T04:21:29.757Z,100.00
2022-08-16T04:23:56.246Z,100.00
2022-08-16T04:26:22.674Z,100.00
2022-08-16T04:28:55.886Z,100.00
2022-08-16T04:31:36.681Z,100.00
2022-08-16T04:34:03.928Z,100.00
2022-08-16T04:36:30.344Z,100.00
2022-08-16T04:38:58.625Z,100.00
2022-08-16T04:41:32.289Z,100.00
2022-08-16T04:44:00.157Z,100.00
2022-08-16T04:47:00.992Z,100.00
2022-08-16T04:49:13.246Z,100.00
2022-08-16T04:51:43.261Z,100.00
2022-08-16T04:54:20.212Z,100.00
2022-08-16T04:56:46.764Z,100.00
2022-08-16T04:59:15.208Z,100.00
2022-08-16T05:01:58.905Z,100.00
2022-08-16T05:04:25.963Z,100.00
2022-08-16T05:06:56.745Z,100.00
2022-08-16T05:09:23.912Z,100.00
2022-08-16T05:11:50.368Z,100.00
2022-08-16T05:14:20.378Z,100.00
2022-08-16T05:17:03.778Z,100.00
2022-08-16T05:19:35.853Z,100.00
2022-08-16T05:22:02.756Z,100.00
2022-08-16T05:24:29.161Z,100.00
2022-08-16T05:26:56.785Z,100.00
2022-08-16T05:29:25.009Z,100.00
2022-08-16T05:32:32.543Z,100.00
2022-08-16T05:34:56.418Z,100.00
2022-08-16T05:37:24.391Z,100.00
2022-08-16T05:39:51.765Z,100.00
2022-08-16T05:42:21.960Z,100.00
2022-08-16T05:45:02.489Z,100.00
2022-08-16T05:47:33.571Z,100.00
2022-08-16T05:50:10.012Z,100.00
2022-08-16T05:52:45.895Z,100.00
2022-08-16T05:55:12.539Z,100.00
2022-08-16T05:57:38.968Z,100.00
2022-08-16T06:00:10.926Z,100.00
2022-08-16T06:02:37.583Z,100.00
2022-08-16T06:05:05.566Z,100.00
2022-08-16T06:07:32.358Z,100.00
2022-08-16T06:10:00.169Z,100.00
2022-08-16T06:12:28.947Z,100.00
2022-08-16T06:15:04.539Z,100.00
2022-08-16T06:17:41.587Z,100.00
2022-08-16T06:20:23.479Z,100.00
2022-08-16T06:22:58.551Z,100.00
2022-08-16T06:25:39.590Z,100.00
2022-08-16T06:28:09.440Z,100.00
2022-08-16T06:30:43.938Z,100.00
2022-08-16T06:33:19.933Z,100.00
2022-08-16T06:35:59.542Z,100.00
2022-08-16T06:38:33.830Z,100.00
2022-08-16T06:41:03.755Z,100.00
2022-08-16T06:43:30.183Z,100.00
2022-08-16T06:45:56.778Z,100.00
2022-08-16T06:48:32.712Z,100.00
2022-08-16T06:51:01.420Z,100.00
2022-08-16T06:53:29.734Z,100.00
2022-08-16T06:55:58.519Z,100.00
2022-08-16T06:58:31.969Z,100.00
2022-08-16T07:01:00.113Z,100.00
2022-08-16T07:03:32.169Z,100.00
2022-08-16T07:05:59.675Z,100.00
2022-08-16T07:08:27.646Z,100.00
2022-08-16T07:10:55.591Z,100.00
2022-08-16T07:13:54.720Z,100.00
2022-08-16T07:16:15.360Z,100.00
2022-08-16T07:18:59.006Z,99.53
2022-08-16T07:21:28.213Z,99.23
2022-08-16T07:24:29.531Z,100.00
2022-08-16T07:26:56.441Z,99.24
2022-08-16T07:29:22.857Z,98.66
2022-08-16T07:31:49.445Z,97.79
2022-08-16T07:34:15.874Z,96.61
2022-08-16T07:36:42.979Z,98.62
2022-08-16T07:39:13.159Z,96.77
2022-08-16T07:41:40.740Z,96.11
2022-08-16T07:44:16.245Z,95.80
2022-08-16T07:46:43.436Z,97.14
2022-08-16T07:49:11.362Z,94.25
2022-08-16T07:51:38.072Z,95.00
2022-08-16T07:54:09.527Z,94.42
2022-08-16T07:56:37.517Z,93.69
2022-08-16T07:59:05.363Z,92.31
2022-08-16T08:01:31.900Z,92.18
2022-08-16T08:03:58.826Z,91.64
2022-08-16T08:06:28.553Z,91.29
2022-08-16T08:08:59.157Z,88.72
2022-08-16T08:11:28.150Z,86.15
2022-08-16T08:13:55.166Z,86.46
2022-08-16T08:16:30.489Z,86.91
2022-08-16T08:19:00.541Z,87.30
2022-08-16T08:21:59.453Z,86.15
2022-08-16T08:24:15.232Z,84.53
2022-08-16T08:26:42.851Z,84.21
2022-08-16T08:29:09.603Z,83.20
2022-08-16T08:31:36.345Z,83.05
2022-08-16T08:34:05.047Z,83.13
2022-08-16T08:36:33.251Z,81.75
2022-08-16T08:39:00.594Z,80.63
2022-08-16T08:41:29.279Z,82.53
2022-08-16T08:43:57.499Z,82.14
2022-08-16T08:46:25.459Z,80.16
2022-08-16T08:48:59.025Z,78.40
2022-08-16T08:51:27.522Z,77.60
2022-08-16T08:53:58.713Z,76.26
2022-08-16T08:56:25.782Z,74.86
2022-08-16T08:58:55.017Z,75.32
2022-08-16T09:01:31.877Z,73.79
2022-08-16T09:04:04.609Z,72.81
2022-08-16T09:06:32.451Z,73.46
2022-08-16T09:09:00.003Z,71.74
2022-08-16T09:11:40.819Z,71.18
2022-08-16T09:14:08.850Z,69.21
2022-08-16T09:17:03.607Z,70.77
2022-08-16T09:19:40.846Z,69.15
2022-08-16T09:22:19.945Z,68.49
2022-08-16T09:24:52.593Z,67.49
2022-08-16T09:27:25.098Z,65.77
2022-08-16T09:29:59.868Z,64.83
2022-08-16T09:32:30.306Z,65.30
2022-08-16T09:34:58.509Z,64.66
2022-08-16T09:37:29.567Z,65.77
2022-08-16T09:39:59.547Z,65.78
2022-08-16T09:42:28.226Z,62.67
2022-08-16T09:45:12.081Z,61.80
2022-08-16T09:47:56.862Z,61.79
2022-08-16T09:50:26.799Z,60.55
2022-08-16T09:53:06.906Z,59.32
2022-08-16T09:55:33.371Z,59.61
2022-08-16T09:58:12.307Z,59.01
2022-08-16T10:00:57.477Z,58.65
2022-08-16T10:03:27.593Z,56.75
2022-08-16T10:05:56.834Z,56.92
2022-08-16T10:08:25.929Z,55.42
2022-08-16T10:11:12.018Z,55.03
2022-08-16T10:13:39.463Z,57.60
2022-08-16T10:18:56.271Z,55.21
2022-08-16T10:21:23.158Z,53.25
2022-08-16T10:23:53.559Z,52.87
2022-08-16T10:27:19.833Z,51.83
2022-08-16T10:29:08.516Z,51.69
2022-08-16T10:31:46.056Z,51.88
2022-08-16T10:34:31.569Z,52.09
2022-08-16T10:37:00.527Z,51.40
2022-08-16T10:39:40.547Z,49.79
2022-08-16T10:42:08.500Z,50.54
2022-08-16T10:44:34.997Z,50.00
2022-08-16T10:47:02.376Z,48.67
2022-08-16T10:49:29.042Z,48.26
2022-08-16T10:52:02.410Z,48.87
2022-08-16T10:57:33.077Z,46.60
2022-08-16T10:59:59.968Z,45.42
2022-08-16T11:02:58.969Z,45.45
2022-08-16T11:05:16.243Z,45.18
2022-08-16T11:07:53.614Z,46.05
2022-08-16T11:17:01.945Z,43.93
2022-08-16T11:19:06.104Z,44.39
2022-08-16T11:22:22.445Z,45.14
2022-08-16T11:24:42.757Z,45.79
2022-08-16T11:27:23.389Z,44.05
2022-08-16T11:29:53.410Z,43.62
2022-08-16T11:32:32.363Z,43.06
2022-08-16T11:35:10.840Z,41.15
2022-08-16T11:40:46.850Z,41.02
2022-08-16T11:43:21.790Z,40.78
2022-08-16T11:45:53.869Z,40.61
2022-08-16T11:48:21.587Z,41.46
2022-08-16T11:50:48.077Z,41.12
2022-08-16T11:53:15.259Z,40.36
2022-08-16T11:55:44.224Z,41.12
2022-08-16T11:58:11.987Z,40.13
2022-08-16T12:00:51.260Z,38.46
2022-08-16T12:03:19.104Z,38.50
2022-08-16T12:05:46.032Z,39.03
2022-08-16T12:08:12.625Z,37.96
2022-08-16T12:10:39.785Z,38.30
2022-08-16T12:13:07.508Z,38.19
2022-08-16T12:15:37.789Z,38.86
2022-08-16T12:18:05.159Z,39.00
2022-08-16T12:20:36.640Z,38.71
2022-08-16T12:23:03.966Z,36.91
2022-08-16T12:25:32.506Z,35.65
2022-08-16T12:28:02.870Z,36.77
2022-08-16T12:30:38.601Z,36.88
2022-08-16T12:33:07.621Z,36.55
2022-08-16T12:35:36.930Z,35.53
2022-08-16T12:38:10.359Z,35.85
2022-08-16T12:40:52.998Z,36.51
2022-08-16T12:43:23.494Z,36.08
2022-08-16T12:45:52.583Z,35.76
2022-08-16T12:48:39.707Z,35.00
2022-08-16T12:51:19.681Z,35.12
2022-08-16T12:53:53.441Z,34.65
2022-08-16T12:56:22.281Z,34.38
2022-08-16T12:58:53.208Z,33.23
2022-08-16T13:01:26.538Z,32.12
2022-08-16T13:04:11.322Z,32.00
2022-08-16T13:06:42.123Z,33.44
2022-08-16T13:09:21.781Z,34.18
2022-08-16T13:11:59.964Z,32.27
2022-08-16T13:14:31.306Z,31.50
2022-08-16T13:17:05.176Z,30.57
2022-08-16T13:19:56.359Z,29.66
2022-08-16T13:22:21.762Z,30.15
2022-08-16T13:24:48.181Z,31.60
2022-08-16T13:27:17.714Z,32.62
2022-08-16T13:29:45.023Z,33.95
2022-08-16T13:32:39.639Z,32.75
2022-08-16T13:35:04.807Z,33.68
2022-08-16T13:37:32.504Z,33.20
2022-08-16T13:40:04.494Z,33.34
2022-08-16T13:42:32.729Z,32.37
2022-08-16T13:45:08.962Z,32.87
2022-08-16T13:47:39.881Z,33.91
2022-08-16T13:50:08.907Z,35.54
2022-08-16T13:52:39.692Z,36.27
2022-08-16T13:55:15.599Z,35.09
2022-08-16T13:57:53.473Z,34.32
2022-08-16T14:00:31.015Z,33.92
2022-08-16T14:02:59.177Z,34.84
2022-08-16T14:05:26.303Z,33.84
2022-08-16T14:07:53.665Z,32.81
2022-08-16T14:10:20.114Z,30.44
2022-08-16T14:12:47.764Z,31.04
2022-08-16T14:15:15.846Z,32.27
2022-08-16T14:18:17.115Z,31.53
2022-08-16T14:20:28.778Z,30.75
2022-08-16T14:22:55.400Z,29.73
2022-08-16T14:25:23.059Z,30.07
2022-08-16T14:27:52.322Z,30.03
2022-08-16T14:30:21.529Z,30.55
2022-08-16T14:32:51.062Z,30.71
2022-08-16T14:35:36.526Z,31.06
2022-08-16T14:38:10.460Z,30.34
2022-08-16T14:40:47.177Z,30.10
2022-08-16T14:43:19.095Z,31.74
2022-08-16T14:45:46.196Z,31.83
2022-08-16T14:48:21.488Z,33.19
2022-08-16T14:50:51.889Z,34.52
2022-08-16T14:53:18.329Z,35.34
2022-08-16T14:55:45.112Z,35.87
2022-08-16T14:58:19.256Z,36.31
2022-08-16T15:00:47.692Z,37.23
2022-08-16T15:03:17.265Z,37.42
2022-08-16T15:05:44.190Z,40.01
2022-08-16T15:08:11.115Z,38.78
2022-08-16T15:10:39.041Z,39.49
2022-08-16T15:13:10.668Z,40.93
2022-08-16T15:15:38.440Z,40.16
2022-08-16T15:18:06.232Z,39.46
2022-08-16T15:20:37.072Z,41.01
2022-08-16T15:23:06.728Z,41.26
2022-08-16T15:25:44.780Z,41.72
2022-08-16T15:28:30.664Z,42.29
2022-08-16T15:31:01.015Z,43.69
2022-08-16T15:33:30.147Z,43.85
2022-08-16T15:35:58.900Z,44.11
2022-08-16T15:38:57.874Z,44.29
2022-08-16T15:41:32.531Z,42.92
2022-08-16T15:44:05.285Z,43.07
2022-08-16T15:46:54.717Z,44.47
2022-08-16T15:49:23.582Z,43.12
2022-08-16T15:51:51.867Z,44.12
2022-08-16T15:54:30.089Z,43.41
2022-08-16T15:57:04.319Z,44.04
2022-08-16T15:59:48.784Z,44.95
2022-08-16T16:02:27.326Z,44.07
2022-08-16T16:04:54.375Z,44.61
2022-08-16T16:07:21.743Z,45.25
2022-08-16T16:09:48.695Z,45.78
2022-08-16T16:12:41.943Z,45.48
2022-08-16T16:15:03.689Z,45.22
2022-08-16T16:17:30.133Z,45.69
2022-08-16T16:19:56.561Z,45.41
2022-08-16T16:22:25.434Z,46.06
2022-08-16T16:24:52.990Z,46.19
2022-08-16T16:27:21.912Z,46.49
2022-08-16T16:29:57.719Z,46.65
2022-08-16T16:32:34.078Z,47.22
2022-08-16T16:35:01.902Z,46.40
2022-08-16T16:37:28.617Z,47.98
2022-08-16T16:39:56.224Z,47.99
2022-08-16T16:42:29.273Z,47.80
2022-08-16T16:45:00.700Z,48.09
2022-08-16T16:47:27.685Z,48.12
2022-08-16T16:49:55.011Z,48.28
2022-08-16T16:52:43.477Z,49.70
2022-08-16T16:55:09.341Z,49.74
2022-08-16T16:57:54.795Z,48.87
2022-08-16T17:00:29.767Z,48.61
2022-08-16T17:03:05.702Z,49.28
2022-08-16T17:05:32.503Z,47.66
2022-08-16T17:07:59.843Z,48.94
2022-08-16T17:10:46.489Z,50.39
2022-08-16T17:13:15.577Z,49.82
2022-08-16T17:15:42.028Z,50.51
2022-08-16T17:19:17.687Z,50.12
2022-08-16T17:20:55.131Z,52.41
2022-08-16T17:23:23.162Z,53.38
2022-08-16T17:26:10.566Z,54.56
2022-08-16T17:28:58.503Z,56.10
2022-08-16T17:31:23.715Z,58.54
2022-08-16T17:34:30.546Z,57.10
2022-08-16T17:36:54.576Z,57.50
2022-08-16T17:39:22.093Z,58.03
2022-08-16T17:41:50.738Z,59.46
2022-08-16T17:44:19.100Z,61.66
2022-08-16T17:46:52.152Z,58.92
2022-08-16T17:49:19.381Z,57.00
2022-08-16T17:51:45.845Z,61.03
2022-08-16T17:54:20.302Z,64.65
2022-08-16T17:57:00.572Z,65.80
2022-08-16T17:59:27.828Z,67.63
2022-08-16T18:01:54.700Z,68.09
2022-08-16T18:04:49.120Z,70.30
2022-08-16T18:07:08.304Z,71.10
2022-08-16T18:09:36.785Z,70.00
2022-08-16T18:12:44.400Z,67.82
2022-08-16T18:15:21.389Z,66.12
2022-08-16T18:17:49.778Z,66.82
2022-08-16T18:20:34.577Z,66.67
2022-08-16T18:23:09.555Z,66.54
2022-08-16T18:25:42.730Z,67.20
2022-08-16T18:28:09.203Z,69.34
2022-08-16T18:30:35.712Z,68.94
2022-08-16T18:33:02.213Z,67.98
2022-08-16T18:35:28.857Z,69.12
2022-08-16T18:37:55.810Z,67.42
2022-08-16T18:40:22.594Z,68.13
2022-08-16T18:42:54.467Z,68.15
2022-08-16T18:45:21.259Z,69.42
2022-08-16T18:47:47.659Z,70.07
2022-08-16T18:50:14.157Z,72.53
2022-08-16T18:52:49.167Z,73.50
2022-08-16T18:55:15.731Z,75.72
2022-08-16T18:57:44.673Z,76.96
2022-08-16T19:00:13.218Z,76.53
2022-08-16T19:02:57.397Z,76.47
2022-08-16T19:05:27.480Z,75.99
2022-08-16T19:07:53.913Z,75.30
2022-08-16T19:10:20.852Z,75.17
2022-08-16T19:12:47.548Z,77.25
2022-08-16T19:15:17.177Z,78.08
2022-08-16T19:17:44.844Z,78.12
2022-08-16T19:20:12.498Z,76.96
2022-08-16T19:25:47.245Z,76.95
2022-08-16T19:28:48.931Z,77.90
2022-08-16T19:31:03.832Z,78.00
2022-08-16T19:33:30.621Z,77.39
2022-08-16T19:35:57.031Z,78.95
2022-08-16T19:38:23.491Z,80.05
2022-08-16T19:40:50.370Z,82.96
2022-08-16T19:43:16.856Z,82.47
2022-08-16T19:45:46.124Z,83.35
2022-08-16T19:48:12.915Z,83.65
2022-08-16T19:50:39.380Z,83.36
2022-08-16T19:53:18.546Z,81.85
2022-08-16T19:55:47.213Z,82.86
2022-08-16T19:58:15.322Z,84.57
2022-08-16T20:00:43.193Z,85.45
2022-08-16T20:03:13.075Z,86.97
2022-08-16T20:05:41.103Z,88.00
2022-08-16T20:08:07.991Z,88.15
2022-08-16T20:10:34.530Z,90.40
2022-08-16T20:13:02.443Z,91.61
2022-08-16T20:15:30.934Z,93.86
2022-08-16T20:17:58.095Z,94.20
2022-08-16T20:20:27.214Z,96.24
2022-08-16T20:23:02.645Z,97.73
2022-08-16T20:25:31.565Z,97.89
2022-08-16T20:27:59.947Z,98.88
2022-08-16T20:30:26.969Z,98.64
2022-08-16T20:32:53.750Z,98.21
2022-08-16T20:35:22.925Z,96.46
2022-08-16T20:37:49.464Z,95.98
2022-08-16T20:40:29.583Z,96.49
2022-08-16T20:43:07.523Z,97.54
2022-08-16T20:45:34.755Z,98.01
2022-08-16T20:48:01.172Z,97.75
2022-08-16T20:50:27.644Z,98.09
2022-08-16T20:52:54.065Z,97.80
2022-08-16T20:55:20.903Z,96.85
2022-08-16T20:57:47.348Z,94.83
2022-08-16T21:00:14.204Z,94.04
2022-08-16T21:02:40.751Z,92.41
2022-08-16T21:05:08.557Z,91.40
2022-08-16T21:07:35.488Z,92.00
2022-08-16T21:10:01.948Z,90.45
2022-08-16T21:12:33.800Z,91.32
2022-08-16T21:15:08.152Z,92.11
2022-08-16T21:17:34.549Z,94.40
2022-08-16T21:20:00.936Z,94.39
2022-08-16T21:22:27.395Z,95.92
2022-08-16T21:24:55.903Z,94.50
2022-08-16T21:27:25.492Z,93.89
2022-08-16T21:29:52.552Z,95.83
2022-08-16T21:32:45.001Z,98.08
2022-08-16T21:35:14.386Z,98.67
2022-08-16T21:37:41.176Z,99.24
2022-08-16T21:40:08.956Z,98.61
2022-08-16T21:42:36.752Z,99.82
2022-08-16T21:45:03.556Z,99.76
2022-08-16T21:47:29.990Z,99.04
2022-08-16T21:49:56.408Z,98.44
2022-08-16T21:52:26.702Z,97.51
2022-08-16T21:54:56.393Z,98.15
2022-08-16T21:57:23.152Z,99.52
2022-08-16T21:59:51.736Z,100.00
2022-08-16T22:02:20.743Z,100.00
2022-08-16T22:04:47.693Z,100.00
2022-08-16T22:07:16.724Z,100.00
2022-08-16T22:09:43.254Z,100.00
2022-08-16T22:12:18.044Z,100.00
2022-08-16T22:14:48.005Z,100.00
2022-08-16T22:17:15.291Z,100.00
2022-08-16T22:19:42.020Z,100.00
2022-08-16T22:22:08.519Z,100.00
2022-08-16T22:24:34.941Z,100.00
2022-08-16T22:27:01.369Z,100.00
2022-08-16T22:29:27.797Z,100.00
2022-08-16T22:31:54.213Z,100.00
2022-08-16T22:34:20.647Z,100.00
2022-08-16T22:36:47.232Z,100.00
2022-08-16T22:39:14.455Z,100.00
2022-08-16T22:41:43.163Z,100.00
2022-08-16T22:44:09.703Z,100.00
2022-08-16T22:46:36.663Z,100.00
2022-08-16T22:49:04.697Z,100.00
2022-08-16T22:51:31.400Z,100.00
2022-08-16T22:53:58.148Z,100.00
2022-08-16T22:56:25.389Z,100.00
2022-08-16T22:58:52.005Z,100.00
2022-08-16T23:01:20.140Z,100.00
2022-08-16T23:03:46.947Z,100.00
2022-08-16T23:06:13.909Z,100.00
2022-08-16T23:08:41.578Z,100.00
2022-08-16T23:11:22.293Z,100.00
2022-08-16T23:13:54.467Z,100.00
2022-08-16T23:16:32.516Z,100.00
2022-08-16T23:19:01.946Z,100.00
2022-08-16T23:21:28.357Z,100.00
2022-08-16T23:23:54.828Z,100.00
2022-08-16T23:26:46.370Z,100.00
2022-08-16T23:29:15.649Z,100.00
2022-08-16T23:31:56.045Z,100.00
2022-08-16T23:34:22.546Z,100.00
2022-08-16T23:36:48.982Z,100.00
2022-08-16T23:39:15.485Z,100.00
2022-08-16T23:41:41.936Z,100.00
2022-08-16T23:44:45.530Z,100.00
2022-08-16T23:46:55.265Z,100.00
2022-08-16T23:49:58.644Z,100.00
2022-08-16T23:52:09.205Z,100.00
2022-08-16T23:54:35.903Z,100.00
2022-08-16T23:57:02.807Z,100.00
2022-08-16T23:59:29.536Z,100.00
